createdAt,value
2018-12-16T00:02:25.598Z,11.60
2018-12-16T00:04:56.056Z,12.97
2018-12-16T00:07:26.499Z,11.10
2018-12-16T00:09:56.873Z,12.07
2018-12-16T00:12:27.378Z,12.40
2018-12-16T00:14:57.816Z,11.73
2018-12-16T00:17:28.270Z,11.87
2018-12-16T00:19:58.715Z,12.30
2018-12-16T00:22:29.960Z,9.70
2018-12-16T00:25:00.756Z,13.13
2018-12-16T00:27:31.202Z,13.00
2018-12-16T00:30:01.730Z,13.53
2018-12-16T00:32:32.234Z,11.87
2018-12-16T00:35:02.789Z,14.27
2018-12-16T00:37:33.223Z,12.53
2018-12-16T00:40:03.910Z,12.27
2018-12-16T00:42:34.412Z,13.77
2018-12-16T00:45:05.498Z,13.10
2018-12-16T00:47:35.936Z,14.33
2018-12-16T00:50:08.053Z,13.30
2018-12-16T00:52:38.605Z,10.97
2018-12-16T00:55:09.363Z,13.30
2018-12-16T00:57:39.879Z,11.80
2018-12-16T01:00:14.482Z,14.37
2018-12-16T01:02:45.101Z,12.20
2018-12-16T01:05:15.908Z,13.10
2018-12-16T01:07:46.699Z,12.00
2018-12-16T01:10:17.206Z,14.27
2018-12-16T01:12:47.606Z,11.50
2018-12-16T01:15:18.070Z,12.07
2018-12-16T01:17:48.522Z,11.67
2018-12-16T01:20:20.085Z,12.50
2018-12-16T01:22:50.732Z,14.20
2018-12-16T01:25:21.742Z,13.40
2018-12-16T01:27:52.362Z,14.40
2018-12-16T01:30:23.165Z,12.33
2018-12-16T01:32:53.795Z,12.90
2018-12-16T01:35:24.261Z,14.20
2018-12-16T01:37:54.955Z,12.18
2018-12-16T01:40:25.428Z,11.80
2018-12-16T01:42:55.875Z,12.33
2018-12-16T01:45:26.322Z,13.67
2018-12-16T01:47:56.891Z,13.17
2018-12-16T01:50:27.275Z,13.00
2018-12-16T01:52:58.082Z,14.63
2018-12-16T01:55:28.612Z,14.50
2018-12-16T01:57:59.035Z,14.10
2018-12-16T02:00:29.547Z,12.90
2018-12-16T02:02:59.995Z,12.80
2018-12-16T02:05:30.463Z,11.93
2018-12-16T02:08:00.858Z,14.33
2018-12-16T02:10:31.293Z,15.13
2018-12-16T02:13:01.810Z,12.20
2018-12-16T02:15:32.267Z,13.97
2018-12-16T02:18:02.733Z,14.63
2018-12-16T02:20:33.186Z,14.37
2018-12-16T02:23:03.700Z,14.33
2018-12-16T02:25:34.099Z,14.97
2018-12-16T02:28:04.666Z,14.03
2018-12-16T02:30:35.195Z,14.77
2018-12-16T02:33:05.609Z,14.27
2018-12-16T02:35:36.142Z,14.60
2018-12-16T02:38:06.664Z,13.70
2018-12-16T02:40:37.281Z,14.07
2018-12-16T02:43:08.274Z,12.63
2018-12-16T02:45:38.849Z,16.23
2018-12-16T02:48:09.397Z,13.93
2018-12-16T02:50:39.843Z,13.53
2018-12-16T02:53:10.364Z,13.73
2018-12-16T02:55:40.793Z,15.27
2018-12-16T02:58:11.335Z,15.93
2018-12-16T03:00:42.792Z,14.07
2018-12-16T03:03:13.301Z,14.53
2018-12-16T03:05:43.743Z,15.47
2018-12-16T03:08:14.160Z,15.90
2018-12-16T03:10:44.684Z,13.63
2018-12-16T03:13:15.139Z,14.07
2018-12-16T03:15:45.670Z,13.30
2018-12-16T03:18:16.220Z,16.63
2018-12-16T03:20:46.719Z,14.13
2018-12-16T03:23:17.236Z,21.80
2018-12-16T03:25:47.775Z,16.17
2018-12-16T03:28:18.246Z,17.33
2018-12-16T03:30:48.709Z,15.03
2018-12-16T03:33:19.151Z,15.43
2018-12-16T03:35:49.553Z,15.43
2018-12-16T03:38:20.077Z,15.03
2018-12-16T03:40:50.531Z,13.30
2018-12-16T03:43:21.169Z,15.43
2018-12-16T03:45:51.614Z,15.07
2018-12-16T03:48:22.174Z,16.97
2018-12-16T03:50:52.887Z,17.00
2018-12-16T03:53:23.723Z,16.10
2018-12-16T03:55:54.133Z,16.17
2018-12-16T03:58:24.584Z,15.90
2018-12-16T04:00:55.892Z,14.40
2018-12-16T04:03:26.358Z,16.93
2018-12-16T04:05:56.786Z,15.15
2018-12-16T04:08:27.222Z,17.67
2018-12-16T04:10:57.652Z,17.33
2018-12-16T04:13:27.856Z,14.20
2018-12-16T04:15:58.390Z,16.17
2018-12-16T04:18:28.529Z,16.47
2018-12-16T04:20:59.974Z,18.30
2018-12-16T04:23:30.221Z,18.30
2018-12-16T04:26:01.677Z,17.95
2018-12-16T04:28:31.929Z,18.40
2018-12-16T04:31:02.092Z,20.93
2018-12-16T04:33:32.222Z,21.13
2018-12-16T04:36:02.443Z,19.62
2018-12-16T04:38:32.738Z,16.97
2018-12-16T04:41:02.958Z,20.00
2018-12-16T04:43:33.105Z,17.60
2018-12-16T04:46:03.231Z,20.50
2018-12-16T04:48:34.526Z,20.63
2018-12-16T04:51:04.710Z,19.50
2018-12-16T04:53:37.122Z,17.77
2018-12-16T04:56:07.630Z,21.47
2018-12-16T04:58:37.887Z,19.77
2018-12-16T05:01:08.031Z,18.07
2018-12-16T05:03:38.234Z,17.60
2018-12-16T05:06:08.378Z,19.87
2018-12-16T05:08:38.609Z,17.63
2018-12-16T05:11:08.699Z,19.27
2018-12-16T05:13:39.101Z,18.20
2018-12-16T05:16:09.220Z,18.13
2018-12-16T05:18:39.401Z,19.67
2018-12-16T05:21:10.863Z,18.23
2018-12-16T05:23:42.080Z,18.47
2018-12-16T05:26:12.451Z,20.93
2018-12-16T05:28:42.504Z,20.87
2018-12-16T05:31:12.698Z,18.63
2018-12-16T05:33:44.897Z,21.00
2018-12-16T05:36:15.027Z,17.37
2018-12-16T05:38:45.459Z,18.20
2018-12-16T05:41:15.580Z,17.00
2018-12-16T05:43:45.648Z,17.30
2018-12-16T05:46:17.237Z,19.37
2018-12-16T05:48:47.458Z,17.83
2018-12-16T05:51:18.606Z,17.33
2018-12-16T05:53:48.970Z,18.70
2018-12-16T05:56:19.601Z,19.13
2018-12-16T05:58:49.815Z,19.30
2018-12-16T06:01:20.234Z,19.57
2018-12-16T06:03:52.284Z,21.30
2018-12-16T06:06:22.395Z,19.80
2018-12-16T06:08:52.558Z,17.73
2018-12-16T06:11:22.675Z,17.47
2018-12-16T06:13:52.859Z,18.77
2018-12-16T06:16:25.071Z,18.97
2018-12-16T06:18:55.237Z,17.50
2018-12-16T06:21:26.551Z,19.37
2018-12-16T06:23:56.697Z,19.80
2018-12-16T06:26:26.817Z,18.63
2018-12-16T06:28:56.942Z,20.13
2018-12-16T06:31:27.050Z,19.50
2018-12-16T06:33:58.808Z,18.17
2018-12-16T06:36:28.958Z,17.73
2018-12-16T06:39:00.281Z,17.90
2018-12-16T06:41:30.418Z,18.90
2018-12-16T06:44:00.570Z,16.30
2018-12-16T06:46:32.454Z,19.00
2018-12-16T06:49:02.571Z,18.87
2018-12-16T06:51:34.006Z,18.50
2018-12-16T06:54:04.236Z,18.83
2018-12-16T06:56:34.402Z,17.77
2018-12-16T06:59:06.219Z,19.33
2018-12-16T07:01:36.480Z,22.47
2018-12-16T07:04:07.771Z,17.03
2018-12-16T07:06:37.895Z,19.40
2018-12-16T07:09:08.806Z,20.27
2018-12-16T07:11:39.036Z,23.47
2018-12-16T07:14:09.273Z,19.30
2018-12-16T07:16:40.749Z,19.37
2018-12-16T07:19:11.152Z,18.37
2018-12-16T07:21:41.447Z,17.87
2018-12-16T07:24:11.599Z,21.93
2018-12-16T07:26:41.837Z,19.97
2018-12-16T07:29:13.289Z,20.10
2018-12-16T07:31:43.399Z,18.50
2018-12-16T07:34:13.561Z,18.57
2018-12-16T07:36:43.734Z,21.57
2018-12-16T07:39:13.843Z,21.63
2018-12-16T07:41:46.191Z,20.13
2018-12-16T07:44:16.328Z,21.40
2018-12-16T07:46:47.727Z,19.30
2018-12-16T07:49:18.041Z,20.87
2018-12-16T07:51:48.210Z,20.30
2018-12-16T07:54:18.379Z,20.90
2018-12-16T07:56:49.958Z,22.93
2018-12-16T07:59:20.096Z,23.47
2018-12-16T08:01:50.289Z,20.87
2018-12-16T08:04:21.803Z,21.07
2018-12-16T08:06:51.974Z,20.63
2018-12-16T08:09:24.199Z,23.50
2018-12-16T08:11:54.244Z,20.23
2018-12-16T08:14:24.364Z,21.83
2018-12-16T08:16:56.018Z,23.33
2018-12-16T08:19:26.144Z,22.43
2018-12-16T08:21:56.338Z,22.80
2018-12-16T08:24:27.607Z,23.90
2018-12-16T08:26:57.790Z,22.53
2018-12-16T08:29:27.944Z,23.90
2018-12-16T08:31:59.529Z,24.03
2018-12-16T08:34:29.781Z,26.17
2018-12-16T08:37:01.164Z,22.87
2018-12-16T08:39:31.295Z,23.63
2018-12-16T08:42:01.507Z,26.60
2018-12-16T08:44:33.164Z,25.13
2018-12-16T08:47:03.295Z,23.83
2018-12-16T08:49:33.499Z,24.03
2018-12-16T08:52:05.264Z,24.10
2018-12-16T08:54:35.677Z,24.10
2018-12-16T08:57:05.791Z,25.07
2018-12-16T08:59:37.219Z,24.33
2018-12-16T09:02:07.517Z,25.53
2018-12-16T09:04:37.699Z,26.20
2018-12-16T09:07:08.174Z,26.23
2018-12-16T09:09:38.704Z,26.33
2018-12-16T09:12:08.920Z,25.33
2018-12-16T09:14:40.821Z,27.67
2018-12-16T09:17:11.109Z,24.77
2018-12-16T09:19:41.277Z,26.67
2018-12-16T09:22:12.623Z,26.43
2018-12-16T09:24:42.753Z,28.77
2018-12-16T09:27:12.991Z,25.97
2018-12-16T09:29:44.010Z,29.17
2018-12-16T09:32:14.282Z,26.67
2018-12-16T09:34:44.400Z,24.40
2018-12-16T09:37:15.801Z,24.37
2018-12-16T09:39:45.939Z,22.57
2018-12-16T09:42:16.100Z,25.40
2018-12-16T09:44:47.646Z,22.87
2018-12-16T09:47:35.236Z,24.07
2018-12-16T09:50:05.713Z,24.50
2018-12-16T09:52:37.638Z,24.80
2018-12-16T09:55:08.339Z,25.70
2018-12-16T09:57:38.479Z,24.57
2018-12-16T10:00:12.415Z,23.10
2018-12-16T10:02:42.522Z,26.67
2018-12-16T10:05:12.723Z,25.83
2018-12-16T10:07:44.049Z,24.83
2018-12-16T10:10:14.316Z,22.87
2018-12-16T10:12:44.427Z,24.53
2018-12-16T10:15:15.753Z,20.77
2018-12-16T10:17:45.872Z,20.33
2018-12-16T10:20:16.207Z,24.60
2018-12-16T10:22:47.805Z,20.30
2018-12-16T10:25:17.957Z,21.77
2018-12-16T10:27:48.086Z,22.27
2018-12-16T10:30:19.405Z,24.13
2018-12-16T10:32:49.523Z,23.97
2018-12-16T10:35:19.581Z,23.53
2018-12-16T10:37:49.983Z,22.53
2018-12-16T10:40:20.143Z,25.63
2018-12-16T10:42:50.285Z,23.50
2018-12-16T10:45:21.592Z,21.97
2018-12-16T10:47:51.817Z,21.33
2018-12-16T10:50:21.981Z,24.83
2018-12-16T10:52:52.905Z,25.37
2018-12-16T10:55:23.017Z,24.90
2018-12-16T10:57:55.094Z,24.40
2018-12-16T11:00:30.532Z,21.70
2018-12-16T11:03:00.644Z,23.47
2018-12-16T11:05:33.181Z,22.57
2018-12-16T11:08:03.326Z,24.20
2018-12-16T11:10:35.266Z,25.03
2018-12-16T11:13:05.848Z,23.97
2018-12-16T11:15:36.071Z,24.87
2018-12-16T11:18:07.688Z,23.73
2018-12-16T11:20:37.959Z,23.83
2018-12-16T11:23:08.090Z,22.67
2018-12-16T11:25:46.760Z,27.40
2018-12-16T11:28:16.895Z,22.90
2018-12-16T11:30:48.696Z,23.77
2018-12-16T11:33:18.853Z,26.13
2018-12-16T11:35:48.978Z,25.27
2018-12-16T11:38:20.688Z,25.83
2018-12-16T11:40:50.808Z,27.73
2018-12-16T11:43:20.898Z,23.40
2018-12-16T11:45:52.611Z,24.47
2018-12-16T11:48:22.748Z,25.50
2018-12-16T11:50:52.885Z,25.87
2018-12-16T11:53:24.501Z,25.60
2018-12-16T11:55:56.050Z,24.23
2018-12-16T11:58:26.278Z,28.03
2018-12-16T12:00:56.593Z,27.40
2018-12-16T12:03:26.702Z,26.10
2018-12-16T12:05:58.923Z,25.83
2018-12-16T12:08:29.076Z,26.40
2018-12-16T12:10:59.305Z,28.50
2018-12-16T12:13:30.614Z,27.07
2018-12-16T12:16:00.765Z,25.87
2018-12-16T12:18:30.927Z,27.97
2018-12-16T12:21:01.555Z,28.10
2018-12-16T12:23:31.703Z,27.77
2018-12-16T12:26:01.732Z,31.10
2018-12-16T12:28:32.497Z,29.70
2018-12-16T12:31:02.853Z,29.23
2018-12-16T12:33:34.820Z,28.03
2018-12-16T12:36:04.987Z,34.17
2018-12-16T12:38:35.165Z,29.17
2018-12-16T12:41:07.165Z,30.20
2018-12-16T12:43:37.344Z,30.63
2018-12-16T12:46:07.450Z,33.73
2018-12-16T12:48:38.514Z,35.17
2018-12-16T12:51:08.655Z,30.90
2018-12-16T12:53:38.775Z,31.13
2018-12-16T12:56:10.195Z,33.90
2018-12-16T12:58:40.234Z,39.03
2018-12-16T13:01:10.384Z,31.10
2018-12-16T13:03:41.249Z,29.50
2018-12-16T13:06:11.366Z,30.17
2018-12-16T13:08:41.618Z,31.67
2018-12-16T13:11:12.932Z,38.77
2018-12-16T13:13:43.086Z,34.83
2018-12-16T13:16:13.250Z,32.03
2018-12-16T13:18:43.647Z,33.90
2018-12-16T13:21:13.745Z,31.23
2018-12-16T13:23:45.048Z,28.37
2018-12-16T13:26:15.259Z,32.00
2018-12-16T13:28:45.418Z,31.07
2018-12-16T13:31:16.866Z,31.57
2018-12-16T13:33:47.149Z,34.13
2018-12-16T13:36:18.496Z,37.00
2018-12-16T13:38:48.650Z,35.57
2018-12-16T13:41:20.510Z,31.77
2018-12-16T13:43:50.698Z,36.93
2018-12-16T13:46:20.806Z,33.90
2018-12-16T13:48:52.495Z,36.90
2018-12-16T13:51:22.637Z,33.57
2018-12-16T13:53:52.804Z,34.37
2018-12-16T13:56:24.051Z,33.43
2018-12-16T13:58:54.143Z,32.97
2018-12-16T14:01:24.266Z,32.50
2018-12-16T14:03:54.426Z,36.13
2018-12-16T14:06:24.610Z,35.47
2018-12-16T14:08:56.332Z,33.47
2018-12-16T14:11:26.603Z,36.70
2018-12-16T14:13:56.760Z,32.97
2018-12-16T14:16:28.553Z,34.70
2018-12-16T14:18:58.678Z,34.60
2018-12-16T14:21:28.803Z,39.13
2018-12-16T14:24:00.096Z,36.13
2018-12-16T14:26:30.233Z,30.63
2018-12-16T14:29:02.733Z,32.80
2018-12-16T14:31:32.880Z,36.17
2018-12-16T14:34:03.103Z,35.17
2018-12-16T14:36:34.730Z,35.13
2018-12-16T14:39:08.447Z,36.27
2018-12-16T14:41:38.694Z,37.90
2018-12-16T14:44:10.083Z,31.50
2018-12-16T14:46:40.274Z,35.57
2018-12-16T14:49:10.409Z,37.63
2018-12-16T14:51:41.899Z,33.87
2018-12-16T14:54:12.039Z,33.23
2018-12-16T14:56:42.158Z,37.00
2018-12-16T14:59:12.287Z,38.33
2018-12-16T15:01:42.413Z,35.70
2018-12-16T15:04:12.461Z,36.37
2018-12-16T15:06:43.750Z,39.33
2018-12-16T15:09:13.903Z,37.37
2018-12-16T15:11:45.356Z,39.07
2018-12-16T15:14:15.627Z,33.63
2018-12-16T15:16:45.659Z,34.53
2018-12-16T15:19:16.918Z,36.87
2018-12-16T15:21:47.017Z,34.30
2018-12-16T15:24:17.168Z,42.43
2018-12-16T15:26:48.210Z,37.30
2018-12-16T15:29:18.329Z,36.13
2018-12-16T15:31:48.423Z,36.17
2018-12-16T15:34:19.852Z,32.93
2018-12-16T15:36:49.933Z,34.23
2018-12-16T15:39:21.718Z,34.37
2018-12-16T15:41:52.180Z,37.37
2018-12-16T15:44:22.242Z,36.60
2018-12-16T15:46:52.295Z,37.93
2018-12-16T15:49:23.726Z,38.70
2018-12-16T15:51:53.899Z,34.00
2018-12-16T15:54:24.069Z,34.60
2018-12-16T15:56:55.507Z,36.87
2018-12-16T15:59:25.636Z,42.33
2018-12-16T16:01:55.812Z,34.17
2018-12-16T16:04:27.343Z,33.30
2018-12-16T16:06:57.482Z,40.00
2018-12-16T16:09:27.661Z,35.40
2018-12-16T16:11:59.109Z,35.73
2018-12-16T16:14:29.276Z,38.27
2018-12-16T16:16:59.486Z,37.93
2018-12-16T16:19:30.987Z,34.30
2018-12-16T16:22:01.150Z,39.83
2018-12-16T16:24:31.355Z,38.37
2018-12-16T16:27:03.041Z,37.60
2018-12-16T16:29:33.323Z,38.20
2018-12-16T16:32:03.516Z,38.27
2018-12-16T16:34:34.838Z,38.43
2018-12-16T16:37:05.020Z,35.50
2018-12-16T16:39:35.219Z,32.33
2018-12-16T16:42:06.609Z,35.73
2018-12-16T16:44:36.868Z,31.43
2018-12-16T16:47:07.142Z,32.13
2018-12-16T16:49:38.615Z,32.87
2018-12-16T16:52:08.783Z,33.30
2018-12-16T16:54:38.975Z,37.13
2018-12-16T16:57:10.429Z,36.23
2018-12-16T16:59:40.744Z,34.97
2018-12-16T17:02:13.139Z,31.47
2018-12-16T17:04:43.310Z,36.57
2018-12-16T17:07:13.530Z,29.40
2018-12-16T17:09:43.706Z,31.77
2018-12-16T17:12:15.177Z,28.80
2018-12-16T17:14:45.450Z,25.47
2018-12-16T17:17:15.548Z,24.33
2018-12-16T17:19:46.897Z,24.30
2018-12-16T17:22:17.920Z,29.10
2018-12-16T17:24:48.087Z,31.30
2018-12-16T17:27:19.561Z,28.40
2018-12-16T17:29:49.699Z,29.10
2018-12-16T17:32:19.854Z,26.37
2018-12-16T17:34:51.125Z,28.17
2018-12-16T17:37:21.265Z,24.93
2018-12-16T17:39:51.415Z,25.27
2018-12-16T17:42:22.939Z,30.47
2018-12-16T17:44:53.099Z,25.53
2018-12-16T17:47:25.044Z,26.07
2018-12-16T17:49:55.208Z,30.30
2018-12-16T17:52:25.325Z,26.07
2018-12-16T17:54:56.973Z,27.60
2018-12-16T17:57:27.338Z,27.40
2018-12-16T17:59:57.608Z,27.57
2018-12-16T18:02:29.524Z,31.13
2018-12-16T18:04:59.827Z,31.40
2018-12-16T18:07:32.000Z,29.83
2018-12-16T18:10:02.402Z,32.57
2018-12-16T18:12:32.690Z,35.10
2018-12-16T18:15:06.317Z,29.80
2018-12-16T18:17:36.665Z,33.03
2018-12-16T18:20:09.315Z,33.83
2018-12-16T18:22:40.928Z,35.50
2018-12-16T18:25:11.148Z,32.00
2018-12-16T18:27:41.589Z,31.00
2018-12-16T18:30:13.532Z,29.90
2018-12-16T18:32:43.737Z,28.03
2018-12-16T18:35:13.896Z,28.13
2018-12-16T18:37:46.472Z,31.23
2018-12-16T18:40:16.739Z,31.53
2018-12-16T18:42:46.911Z,29.60
2018-12-16T18:45:18.359Z,32.43
2018-12-16T18:47:48.664Z,25.97
2018-12-16T18:50:19.352Z,28.27
2018-12-16T18:52:50.767Z,26.57
2018-12-16T18:55:21.145Z,26.13
2018-12-16T18:57:51.348Z,27.60
2018-12-16T19:00:23.455Z,25.87
2018-12-16T19:02:53.677Z,28.40
2018-12-16T19:05:23.872Z,27.60
2018-12-16T19:07:55.279Z,30.53
2018-12-16T19:10:25.491Z,26.77
2018-12-16T19:12:55.702Z,23.93
2018-12-16T19:15:27.759Z,27.13
2018-12-16T19:17:58.183Z,26.63
2018-12-16T19:20:28.450Z,27.03
2018-12-16T19:22:59.852Z,24.67
2018-12-16T19:25:30.030Z,26.37
2018-12-16T19:28:00.203Z,25.60
2018-12-16T19:30:31.587Z,27.40
2018-12-16T19:33:01.786Z,27.77
2018-12-16T19:35:32.102Z,30.57
2018-12-16T19:38:03.680Z,23.83
2018-12-16T19:40:33.874Z,27.60
2018-12-16T19:43:05.812Z,26.63
2018-12-16T19:45:35.981Z,25.43
2018-12-16T19:48:06.222Z,24.03
2018-12-16T19:50:38.258Z,27.13
2018-12-16T19:53:08.505Z,25.80
2018-12-16T19:55:38.736Z,28.63
2018-12-16T19:58:10.759Z,27.03
2018-12-16T20:00:40.981Z,27.80
2018-12-16T20:03:11.149Z,25.63
2018-12-16T20:05:47.771Z,27.23
2018-12-16T20:08:18.174Z,29.43
2018-12-16T20:10:48.321Z,27.23
2018-12-16T20:13:18.386Z,31.57
2018-12-16T20:15:48.569Z,27.27
2018-12-16T20:18:20.393Z,37.03
2018-12-16T20:20:50.538Z,27.53
2018-12-16T20:23:20.703Z,30.10
2018-12-16T20:25:52.364Z,23.33
2018-12-16T20:28:22.580Z,23.47
2018-12-16T20:30:52.770Z,26.20
2018-12-16T20:33:24.570Z,21.97
2018-12-16T20:35:54.798Z,23.63
2018-12-16T20:38:25.086Z,23.00
2018-12-16T20:40:58.064Z,23.37
2018-12-16T20:43:28.230Z,23.33
2018-12-16T20:45:58.699Z,21.97
2018-12-16T20:48:30.132Z,23.37
2018-12-16T20:51:00.358Z,21.97
2018-12-16T20:53:30.540Z,25.90
2018-12-16T20:56:01.925Z,22.77
2018-12-16T20:58:32.136Z,26.37
2018-12-16T21:01:02.388Z,27.07
2018-12-16T21:03:33.837Z,25.90
2018-12-16T21:06:04.083Z,21.73
2018-12-16T21:08:34.295Z,24.57
2018-12-16T21:11:09.775Z,25.10
2018-12-16T21:13:45.216Z,25.30
2018-12-16T21:16:20.673Z,22.63
2018-12-16T21:18:50.915Z,23.63
2018-12-16T21:21:22.308Z,22.60
2018-12-16T21:23:52.460Z,22.30
2018-12-16T21:26:22.564Z,21.60
2018-12-16T21:28:53.820Z,23.47
2018-12-16T21:31:23.914Z,22.43
2018-12-16T21:33:54.196Z,19.20
2018-12-16T21:36:25.766Z,19.97
2018-12-16T21:38:55.924Z,19.37
2018-12-16T21:41:26.081Z,20.70
2018-12-16T21:43:57.673Z,20.47
2018-12-16T21:46:27.834Z,22.07
2018-12-16T21:48:57.959Z,24.00
2018-12-16T21:51:29.254Z,20.97
2018-12-16T21:54:00.343Z,22.50
2018-12-16T21:56:32.268Z,21.13
2018-12-16T21:59:02.755Z,23.30
2018-12-16T22:01:33.116Z,22.43
2018-12-16T22:04:04.990Z,19.50
2018-12-16T22:06:35.202Z,25.20
2018-12-16T22:09:08.331Z,22.40
2018-12-16T22:11:39.818Z,23.63
2018-12-16T22:14:10.009Z,21.57
2018-12-16T22:16:40.190Z,25.73
2018-12-16T22:19:11.964Z,22.93
2018-12-16T22:21:42.130Z,25.27
2018-12-16T22:24:12.331Z,29.80
2018-12-16T22:26:43.819Z,23.43
2018-12-16T22:29:13.990Z,22.50
2018-12-16T22:31:44.206Z,20.40
2018-12-16T22:34:15.655Z,21.73
2018-12-16T22:36:45.837Z,18.33
2018-12-16T22:39:16.005Z,17.40
2018-12-16T22:41:47.525Z,19.17
2018-12-16T22:44:17.664Z,21.63
2018-12-16T22:46:47.936Z,20.33
2018-12-16T22:49:18.131Z,21.63
2018-12-16T22:51:48.250Z,24.07
2018-12-16T22:54:19.959Z,21.57
2018-12-16T22:56:50.118Z,22.93
2018-12-16T22:59:20.334Z,16.80
2018-12-16T23:01:52.138Z,17.90
2018-12-16T23:04:22.305Z,21.90
2018-12-16T23:06:52.547Z,22.00
2018-12-16T23:09:23.739Z,19.20
2018-12-16T23:11:53.940Z,17.77
2018-12-16T23:14:24.123Z,19.10
2018-12-16T23:16:55.491Z,18.47
2018-12-16T23:19:25.634Z,17.10
2018-12-16T23:21:55.894Z,15.80
2018-12-16T23:24:27.771Z,20.70
2018-12-16T23:26:57.948Z,19.10
2018-12-16T23:29:30.388Z,16.60
2018-12-16T23:32:00.496Z,16.90
2018-12-16T23:34:30.685Z,16.20
2018-12-16T23:37:01.943Z,16.50
2018-12-16T23:39:32.117Z,16.27
2018-12-16T23:42:02.325Z,16.10
2018-12-16T23:44:34.539Z,15.13
2018-12-16T23:47:04.667Z,16.90
2018-12-16T23:49:34.866Z,17.07
2018-12-16T23:52:06.600Z,14.90
2018-12-16T23:54:36.814Z,13.20
2018-12-16T23:57:06.981Z,18.13
2018-12-16T23:59:38.560Z,15.37
